Turtletown, TN

9:52 AM EST on February 12, 2016 (GMT -0500)
Green Acre's | | Change Station
CLOSE
Current Station
Personal Weather Station
Location: Farner, TN
Elevation: 1611 ft
Nearby Weather Stations

Elev 1611 ft 35.13 °N, 84.34 °W | Updated 2 minutes ago

Snow
Snow
34.5 °F
Feels Like 34 °F
N
0.0
Wind Variable Wind from South

Today
High -- | Low -- °F
--% Chance of Precip.
Yesterday
High -- | Low -- °F
Precip. -- in
Pressure 30.13 in
Visibility 5.0 miles
Clouds
Windchill 34 °F
Dew Point 33 °F
Humidity 93%
Rainfall 0.00 in
Snow Depth Not available.
7:27 AM 6:16 PM
Waxing Crescent, 21% visible
METAR KDZJ 121435Z AUTO 00000KT 5SM -RA 01/M04 A3013 RMK AO2 T00051038
Pressure 30.13 in
Visibility 5.0 miles
Clouds
Windchill 34 °F
Dew Point 33 °F
Humidity 93%
Rainfall 0.00 in
Snow Depth Not available.
7:27 AM 6:16 PM
Waxing Crescent, 21% visible
METAR KDZJ 121435Z AUTO 00000KT 5SM -RA 01/M04 A3013 RMK AO2 T00051038

10-Day Weather Forecast

Almanac

Astronomy

Feb. 12, 2016 Rise Set
Actual Time
Civil Twilight
Nautical Twilight
Astronomical Twilight
Moon
Length of Visible Light
Length of Day
Tomorrow will be .
, % of the Moon is Illuminated

Today's Extremes

State Highs State Lows

Community

WunderPhotos

Upload Photos

1,892,318 photos uploaded!

WunderBlog® & News

Nearby

Air Quality

  Air Quality AQ Index Pollutant
Not available.

Snow Depth

Station Depth Elevation

Earthquake Activity

City Distance Mag. Time & Date
Minimum magnitude displayed is 2.5.

Coastal Water Temperatures

Place Temperature

Stations

Nearby Weather Stations

Station Location Temp. Windchill Dew Point Humidity Wind Precip. Elev Updated Type
                   

Watches & Warnings

There are currently no watches in effect.